Inicio METAR Ruta Wind Satelite

Informe Meteorológico

Fecha: 2020/11/30 15:37:56 Local
2020.11.30 20:37 UTC


Estado: VENCIDO
Operación:
Station name not available
Nov 11, 2020 - 06:00 AM EST / 2020.11.11 1100 UTC
Wind: from the ENE (070 degrees) at 5 MPH (4 KT):0
Visibility: greater than 7 mile(s):0
Sky conditions: partly cloudy
Temperature: 75 F (24 C)
Dew Point: 73 F (23 C)
Relative Humidity: 94%
Pressure (altimeter): 29.88 in. Hg (1011 hPa)
ob: SKPD 111100Z 07004KT 9999 SCT040 24/23 A2988
cycle: 11